Maple Lake, Minnesota
Current Conditions -  °F | °C
As of 2:56 PM on Tuesday 27 Jan 2015 (Local Time) from KMGG Reporting Station
Overcast Overcast  
Wind Chill: 31°   Ceiling: 1800
Heat Index: 36°   Visibility: 10mi
Dew Point: 30°   Wind: 7mph
Humidity: 77%   Direction: 150°SSE
Pressure: 30.13"   Gusts: NA
Location:  45.23°N, 94°W
Report Text: KMGG 272056Z AUTO 15006KT 10SM OVC018 02/M01 A3013 RMK AO2 T00241012
Loading
Personal Weather Stations






























Interactive Weather Map New forecast layout! Learn more

10-Day Weather Forecast

Advertisements
Track Severe Weather on mobile